Time;durP1;ratioP1;P1;durP2;ratioP2;P2;SDS_P1;SDS_P2;PMS_P1;PMS_P2;Temp;Humidity;BMP_temperature;BMP_pressure;BME280_temperature;BME280_humidity;BME280_pressure;Samples;Min_cycle;Max_cycle;Signal;HPM_P1;HPM_P2
2022/07/22 00:01:42;;;;;;;6.22;3.40;;;;;;;;;;5081231;28;20035;-87
2022/07/22 00:04:07;;;;;;;5.70;3.20;;;;;;;;;;5086186;28;20027;-87
2022/07/22 00:06:33;;;;;;;7.97;3.22;;;;;;;;;;5060997;28;20021;-87
2022/07/22 00:08:58;;;;;;;4.72;3.13;;;;;;;;;;5089492;28;20364;-86
2022/07/22 00:11:24;;;;;;;7.30;3.55;;;;;;;;;;5080626;28;20029;-87
2022/07/22 00:13:49;;;;;;;3.63;2.83;;;;;;;;;;5063767;28;20497;-86
2022/07/22 00:16:15;;;;;;;4.40;3.13;;;;;;;;;;5078163;28;20042;-86
2022/07/22 00:18:41;;;;;;;8.70;4.22;;;;;;;;;;5060413;28;20150;-88
2022/07/22 00:21:06;;;;;;;3.50;2.60;;;;;;;;;;5098671;28;20044;-87
2022/07/22 00:23:32;;;;;;;5.72;3.45;;;;;;;;;;5085232;28;20091;-87
2022/07/22 00:25:57;;;;;;;5.53;3.00;;;;;;;;;;5083094;28;20024;-87
2022/07/22 00:28:23;;;;;;;7.82;3.28;;;;;;;;;;5089541;28;20484;-86
2022/07/22 00:30:48;;;;;;;6.93;2.83;;;;;;;;;;5091353;28;20034;-87
2022/07/22 00:33:14;;;;;;;4.72;3.35;;;;;;;;;;5069725;28;20105;-86
2022/07/22 00:35:39;;;;;;;3.90;3.00;;;;;;;;;;5063414;28;20028;-87
2022/07/22 00:38:05;;;;;;;6.07;3.40;;;;;;;;;;5070279;28;20364;-87
2022/07/22 00:40:30;;;;;;;4.90;3.30;;;;;;;;;;5081383;28;20012;-87
2022/07/22 00:42:56;;;;;;;4.20;2.90;;;;;;;;;;5081815;28;20117;-86
2022/07/22 00:45:21;;;;;;;5.05;2.92;;;;;;;;;;5079173;28;20541;-88
2022/07/22 00:47:47;;;;;;;9.05;3.80;;;;;;;;;;5067455;28;20033;-89
2022/07/22 00:50:14;;;;;;;6.72;3.85;;;;;;;;;;5086658;28;20021;-88
2022/07/22 00:52:41;;;;;;;5.20;3.67;;;;;;;;;;5079855;28;20027;-89
2022/07/22 00:55:07;;;;;;;5.93;3.28;;;;;;;;;;5085172;28;20111;-85
2022/07/22 00:57:32;;;;;;;7.45;3.50;;;;;;;;;;5085185;28;20031;-85
2022/07/22 00:59:59;;;;;;;5.47;3.45;;;;;;;;;;5062830;28;20024;-86
2022/07/22 01:02:24;;;;;;;6.95;3.58;;;;;;;;;;5085629;28;20107;-86
2022/07/22 01:04:50;;;;;;;6.72;3.95;;;;;;;;;;5079390;28;20800;-86
2022/07/22 01:07:15;;;;;;;3.92;3.17;;;;;;;;;;5082705;28;20031;-87
2022/07/22 01:09:45;;;;;;;5.60;3.20;;;;;;;;;;5084716;28;20024;-88
2022/07/22 01:12:10;;;;;;;7.85;3.10;;;;;;;;;;5083073;28;20062;-88
2022/07/22 01:14:36;;;;;;;4.03;3.05;;;;;;;;;;5064576;28;20113;-87
2022/07/22 01:17:02;;;;;;;6.53;3.22;;;;;;;;;;5087945;28;20016;-88
2022/07/22 01:19:27;;;;;;;5.43;3.85;;;;;;;;;;5081266;28;20073;-84
2022/07/22 01:21:53;;;;;;;6.43;3.47;;;;;;;;;;5083586;28;20032;-88
2022/07/22 01:24:19;;;;;;;5.72;3.78;;;;;;;;;;5080822;28;20028;-81
2022/07/22 01:26:44;;;;;;;5.13;3.80;;;;;;;;;;5083427;28;20411;-87
2022/07/22 01:29:10;;;;;;;5.63;3.35;;;;;;;;;;5070473;28;20024;-88
2022/07/22 01:31:35;;;;;;;7.10;3.78;;;;;;;;;;5086152;28;20392;-87
2022/07/22 01:34:04;;;;;;;4.97;3.63;;;;;;;;;;5084491;28;20424;-86
2022/07/22 01:36:30;;;;;;;6.53;3.45;;;;;;;;;;5083587;28;20028;-89
2022/07/22 01:38:56;;;;;;;6.75;3.78;;;;;;;;;;5078242;28;20040;-88
2022/07/22 01:41:22;;;;;;;7.25;4.18;;;;;;;;;;5077593;28;20079;-87
2022/07/22 01:43:47;;;;;;;4.68;3.70;;;;;;;;;;5083122;28;20047;-88
2022/07/22 01:46:13;;;;;;;5.78;3.47;;;;;;;;;;5085469;28;20495;-86
2022/07/22 01:48:40;;;;;;;5.60;3.45;;;;;;;;;;5078152;28;20032;-86
2022/07/22 01:51:06;;;;;;;6.05;3.83;;;;;;;;;;5080592;28;20063;-85
2022/07/22 01:53:31;;;;;;;6.57;3.17;;;;;;;;;;5081194;28;20358;-86
2022/07/22 01:55:57;;;;;;;4.07;3.33;;;;;;;;;;5077410;28;20103;-86
2022/07/22 01:58:22;;;;;;;6.40;3.88;;;;;;;;;;5058627;28;20035;-85
2022/07/22 02:00:48;;;;;;;5.47;3.15;;;;;;;;;;5083459;28;20112;-85
2022/07/22 02:03:13;;;;;;;8.15;3.72;;;;;;;;;;5080383;28;20035;-88
2022/07/22 02:05:40;;;;;;;6.05;3.60;;;;;;;;;;5060305;28;20558;-87
2022/07/22 02:08:08;;;;;;;9.82;3.50;;;;;;;;;;5084474;28;20501;-86
2022/07/22 02:10:34;;;;;;;5.03;3.70;;;;;;;;;;5080650;28;20111;-87
2022/07/22 02:13:00;;;;;;;5.38;3.88;;;;;;;;;;5079665;28;20021;-88
2022/07/22 02:15:27;;;;;;;5.10;3.67;;;;;;;;;;5065897;28;20023;-87
2022/07/22 02:17:53;;;;;;;5.43;3.65;;;;;;;;;;5080519;28;20412;-87
2022/07/22 02:20:19;;;;;;;9.45;3.72;;;;;;;;;;5086721;28;20149;-85
2022/07/22 02:22:44;;;;;;;4.53;3.90;;;;;;;;;;5069873;28;20133;-88
2022/07/22 02:25:10;;;;;;;6.65;3.33;;;;;;;;;;5085671;28;20058;-86
2022/07/22 02:27:35;;;;;;;6.50;3.90;;;;;;;;;;5070126;28;20261;-85
2022/07/22 02:30:01;;;;;;;6.30;3.92;;;;;;;;;;5084574;28;20039;-87
2022/07/22 02:32:27;;;;;;;5.72;3.42;;;;;;;;;;5078686;28;20035;-86
2022/07/22 02:34:53;;;;;;;6.88;4.15;;;;;;;;;;5064551;28;20106;-86
2022/07/22 02:37:18;;;;;;;4.68;3.75;;;;;;;;;;5078805;28;20077;-87
2022/07/22 02:39:43;;;;;;;5.65;3.83;;;;;;;;;;5080563;28;20076;-87
2022/07/22 02:42:09;;;;;;;7.72;3.85;;;;;;;;;;5087108;28;20099;-87
2022/07/22 02:44:34;;;;;;;5.57;3.38;;;;;;;;;;5087101;28;20028;-89
2022/07/22 02:47:00;;;;;;;5.82;3.95;;;;;;;;;;5080828;28;20081;-86
2022/07/22 02:49:25;;;;;;;4.25;3.78;;;;;;;;;;5077960;28;20071;-86
2022/07/22 02:51:51;;;;;;;6.65;4.00;;;;;;;;;;5058661;28;20021;-85
2022/07/22 02:54:16;;;;;;;7.00;4.03;;;;;;;;;;5084036;28;20055;-88
2022/07/22 02:56:41;;;;;;;7.55;3.85;;;;;;;;;;5079139;28;20069;-85
2022/07/22 02:59:07;;;;;;;6.22;3.75;;;;;;;;;;5084848;28;20020;-86
2022/07/22 03:01:32;;;;;;;4.32;3.63;;;;;;;;;;5091679;28;20043;-85
2022/07/22 03:03:58;;;;;;;5.57;3.55;;;;;;;;;;5082945;28;20074;-85
2022/07/22 03:06:23;;;;;;;5.30;3.58;;;;;;;;;;5061025;28;20066;-86
2022/07/22 03:08:49;;;;;;;5.35;3.30;;;;;;;;;;5066875;28;20063;-86
2022/07/22 03:11:14;;;;;;;5.57;4.60;;;;;;;;;;5094946;28;20032;-86
2022/07/22 03:13:40;;;;;;;5.55;4.00;;;;;;;;;;5070313;28;20360;-86
2022/07/22 03:16:05;;;;;;;4.22;3.65;;;;;;;;;;5074867;28;20031;-85
2022/07/22 03:18:31;;;;;;;7.35;4.15;;;;;;;;;;5061719;28;20028;-87
2022/07/22 03:20:56;;;;;;;5.72;3.72;;;;;;;;;;5085736;28;20470;-88
2022/07/22 03:23:22;;;;;;;5.70;3.90;;;;;;;;;;5074037;28;20029;-87
2022/07/22 03:25:48;;;;;;;4.50;3.40;;;;;;;;;;5063339;28;20039;-86
2022/07/22 03:28:13;;;;;;;7.28;3.63;;;;;;;;;;5089055;28;20539;-86
2022/07/22 03:30:38;;;;;;;4.90;3.28;;;;;;;;;;5080167;28;20181;-87
2022/07/22 03:33:04;;;;;;;4.60;3.72;;;;;;;;;;5069811;28;20031;-87
2022/07/22 03:35:30;;;;;;;6.00;3.63;;;;;;;;;;5066696;28;20025;-87
2022/07/22 03:37:55;;;;;;;4.65;3.40;;;;;;;;;;5065456;28;20028;-88
2022/07/22 03:40:20;;;;;;;5.25;3.40;;;;;;;;;;5064895;28;20061;-86
2022/07/22 03:42:46;;;;;;;4.47;3.45;;;;;;;;;;5068583;28;20538;-87
2022/07/22 03:45:11;;;;;;;4.78;3.80;;;;;;;;;;5065764;28;20483;-86
2022/07/22 03:47:37;;;;;;;4.47;3.40;;;;;;;;;;5085600;28;20075;-88
2022/07/22 03:50:03;;;;;;;6.47;3.70;;;;;;;;;;5083768;28;20024;-87
2022/07/22 03:52:29;;;;;;;7.60;3.78;;;;;;;;;;5064780;28;20043;-86
2022/07/22 03:54:54;;;;;;;5.03;3.40;;;;;;;;;;5063216;28;20020;-85
2022/07/22 03:57:20;;;;;;;5.88;3.65;;;;;;;;;;5085775;28;20388;-85
2022/07/22 03:59:46;;;;;;;6.82;3.80;;;;;;;;;;5085198;28;20099;-86
2022/07/22 04:02:11;;;;;;;6.03;3.90;;;;;;;;;;5063635;28;20020;-86
2022/07/22 04:04:37;;;;;;;6.05;4.03;;;;;;;;;;5082124;28;20036;-86
2022/07/22 04:07:03;;;;;;;4.15;3.42;;;;;;;;;;5061988;28;20100;-86
2022/07/22 04:09:29;;;;;;;5.90;4.07;;;;;;;;;;5066108;28;20032;-87
2022/07/22 04:11:55;;;;;;;4.38;3.78;;;;;;;;;;5070903;28;20056;-87
2022/07/22 04:14:20;;;;;;;6.05;3.92;;;;;;;;;;5085917;28;20071;-86
2022/07/22 04:16:46;;;;;;;4.63;3.72;;;;;;;;;;5061337;28;20106;-87
2022/07/22 04:19:12;;;;;;;8.18;3.67;;;;;;;;;;5064088;28;20019;-86
2022/07/22 04:21:37;;;;;;;6.13;3.63;;;;;;;;;;5061607;28;20032;-84
2022/07/22 04:24:03;;;;;;;8.73;4.40;;;;;;;;;;5074678;28;20552;-87
2022/07/22 04:26:29;;;;;;;5.38;4.43;;;;;;;;;;5085612;28;20115;-85
2022/07/22 04:28:55;;;;;;;5.55;4.28;;;;;;;;;;5083860;28;20115;-85
2022/07/22 04:31:20;;;;;;;5.68;4.00;;;;;;;;;;5077108;28;20028;-86
2022/07/22 04:33:46;;;;;;;6.70;5.10;;;;;;;;;;5075771;28;20039;-85
2022/07/22 04:36:11;;;;;;;7.38;4.13;;;;;;;;;;5077818;28;20024;-85
2022/07/22 04:38:37;;;;;;;10.55;4.80;;;;;;;;;;5084215;28;20353;-83
2022/07/22 04:41:02;;;;;;;12.80;5.10;;;;;;;;;;5058508;28;20460;-84
2022/07/22 04:43:28;;;;;;;7.60;4.85;;;;;;;;;;5079827;28;20032;-82
2022/07/22 04:45:54;;;;;;;13.20;5.50;;;;;;;;;;5089094;28;20032;-85
2022/07/22 04:48:20;;;;;;;9.30;5.95;;;;;;;;;;5079807;28;20023;-83
2022/07/22 04:50:45;;;;;;;6.97;5.20;;;;;;;;;;5090987;28;20051;-90
2022/07/22 04:53:11;;;;;;;10.18;5.25;;;;;;;;;;5083744;28;20024;-84
2022/07/22 04:55:36;;;;;;;14.77;5.20;;;;;;;;;;5082009;28;20462;-87
2022/07/22 04:58:02;;;;;;;7.22;5.22;;;;;;;;;;5079639;28;20040;-87
2022/07/22 05:00:28;;;;;;;10.60;5.00;;;;;;;;;;5060183;28;20074;-85
2022/07/22 05:02:53;;;;;;;10.93;5.68;;;;;;;;;;5057442;28;20054;-84
2022/07/22 05:05:19;;;;;;;8.10;5.28;;;;;;;;;;5084468;28;20028;-83
2022/07/22 05:07:44;;;;;;;9.10;5.43;;;;;;;;;;5080404;28;20032;-85
2022/07/22 05:10:10;;;;;;;9.38;5.57;;;;;;;;;;5084488;28;20428;-83
2022/07/22 05:12:36;;;;;;;9.88;5.20;;;;;;;;;;5082096;28;20028;-83
2022/07/22 05:15:01;;;;;;;7.18;5.15;;;;;;;;;;5077470;28;20067;-86
2022/07/22 05:17:27;;;;;;;9.02;5.50;;;;;;;;;;5062660;28;20029;-85
2022/07/22 05:19:53;;;;;;;9.32;5.53;;;;;;;;;;5035789;28;1126274;-87
2022/07/22 05:22:18;;;;;;;9.40;5.05;;;;;;;;;;5080374;28;20031;-85
2022/07/22 05:24:43;;;;;;;12.02;5.93;;;;;;;;;;5078427;28;20085;-86
2022/07/22 05:27:09;;;;;;;10.32;5.40;;;;;;;;;;5082262;28;20028;-83
2022/07/22 05:29:34;;;;;;;8.05;5.60;;;;;;;;;;5077925;28;20435;-86
2022/07/22 05:32:00;;;;;;;9.77;6.15;;;;;;;;;;5077697;28;20044;-84
2022/07/22 05:34:25;;;;;;;8.27;5.30;;;;;;;;;;5082171;28;20032;-83
2022/07/22 05:36:51;;;;;;;9.75;5.97;;;;;;;;;;5058815;28;20082;-81
2022/07/22 05:39:16;;;;;;;14.82;7.07;;;;;;;;;;5084199;28;20066;-81
2022/07/22 05:41:42;;;;;;;8.45;5.75;;;;;;;;;;5079177;28;20028;-85
2022/07/22 05:44:07;;;;;;;10.77;5.93;;;;;;;;;;5077612;28;20032;-83
2022/07/22 05:46:32;;;;;;;10.93;5.90;;;;;;;;;;5080928;28;20090;-82
2022/07/22 05:48:58;;;;;;;14.02;5.65;;;;;;;;;;5081450;28;20426;-81
2022/07/22 05:51:23;;;;;;;10.77;5.97;;;;;;;;;;5083732;28;20399;-83
2022/07/22 05:53:49;;;;;;;9.00;6.18;;;;;;;;;;5078476;28;20066;-83
2022/07/22 05:56:15;;;;;;;12.38;5.40;;;;;;;;;;5081646;28;20119;-87
2022/07/22 05:58:41;;;;;;;17.52;5.65;;;;;;;;;;5078479;28;20033;-84
2022/07/22 06:01:08;;;;;;;13.95;6.40;;;;;;;;;;5076067;28;20550;-83
2022/07/22 06:03:33;;;;;;;10.80;5.93;;;;;;;;;;5078809;28;20043;-80
2022/07/22 06:06:04;;;;;;;12.52;5.43;;;;;;;;;;5079113;28;20024;-86
2022/07/22 06:08:30;;;;;;;12.18;6.35;;;;;;;;;;5081581;28;20031;-80
2022/07/22 06:10:59;;;;;;;8.65;5.82;;;;;;;;;;5081911;28;20028;-83
2022/07/22 06:13:24;;;;;;;11.27;5.90;;;;;;;;;;5074231;28;20028;-83
2022/07/22 06:15:50;;;;;;;9.80;5.95;;;;;;;;;;5072417;28;20032;-80
2022/07/22 06:18:16;;;;;;;9.73;5.65;;;;;;;;;;5081233;28;20054;-80
2022/07/22 06:20:41;;;;;;;7.70;6.25;;;;;;;;;;5076729;28;20049;-85
2022/07/22 06:23:07;;;;;;;14.73;5.70;;;;;;;;;;5079067;28;20024;-82
2022/07/22 06:25:32;;;;;;;12.02;6.18;;;;;;;;;;5055054;28;20059;-79
2022/07/22 06:27:57;;;;;;;12.93;6.32;;;;;;;;;;5072245;28;20031;-80
2022/07/22 06:30:23;;;;;;;23.58;5.68;;;;;;;;;;5062498;28;20586;-82
2022/07/22 06:32:48;;;;;;;12.32;5.97;;;;;;;;;;5080867;28;20430;-82
2022/07/22 06:35:14;;;;;;;11.20;6.00;;;;;;;;;;5083061;28;20459;-83
2022/07/22 06:37:39;;;;;;;9.93;5.47;;;;;;;;;;5055615;28;20726;-83
2022/07/22 06:40:05;;;;;;;10.15;5.05;;;;;;;;;;5081756;28;20073;-83
2022/07/22 06:42:31;;;;;;;12.95;6.43;;;;;;;;;;5079136;28;20036;-81
2022/07/22 06:44:56;;;;;;;11.15;6.22;;;;;;;;;;5056231;28;20112;-82
2022/07/22 06:47:22;;;;;;;16.25;6.07;;;;;;;;;;5078012;28;20469;-80
2022/07/22 06:49:47;;;;;;;14.93;6.03;;;;;;;;;;5060948;28;20787;-82
2022/07/22 06:52:12;;;;;;;7.18;4.50;;;;;;;;;;5084280;28;20035;-83
2022/07/22 06:54:38;;;;;;;14.07;6.38;;;;;;;;;;5079426;28;20428;-82
2022/07/22 06:57:03;;;;;;;12.98;6.18;;;;;;;;;;5058245;28;20026;-80
2022/07/22 06:59:29;;;;;;;14.23;6.40;;;;;;;;;;5077979;28;20024;-82
2022/07/22 07:01:54;;;;;;;9.18;4.60;;;;;;;;;;5073489;28;20491;-81
2022/07/22 07:04:20;;;;;;;10.48;4.88;;;;;;;;;;5080162;28;20024;-82
2022/07/22 07:06:46;;;;;;;12.15;8.55;;;;;;;;;;5077537;28;20028;-81
2022/07/22 07:09:11;;;;;;;8.75;4.63;;;;;;;;;;5080092;28;20036;-81
2022/07/22 07:11:37;;;;;;;7.60;5.18;;;;;;;;;;5061212;28;20044;-81
2022/07/22 07:14:03;;;;;;;6.65;4.55;;;;;;;;;;5083850;28;20027;-88
2022/07/22 07:16:29;;;;;;;9.10;4.10;;;;;;;;;;5085648;28;20016;-84
2022/07/22 07:18:55;;;;;;;9.10;3.95;;;;;;;;;;5077834;28;20036;-81
2022/07/22 07:21:20;;;;;;;6.03;3.90;;;;;;;;;;5060961;28;20048;-84
2022/07/22 07:23:46;;;;;;;8.75;5.15;;;;;;;;;;5084431;28;20024;-83
2022/07/22 07:26:11;;;;;;;6.75;5.63;;;;;;;;;;5079388;28;20084;-82
2022/07/22 07:28:37;;;;;;;5.38;3.40;;;;;;;;;;5084550;28;20125;-78
2022/07/22 07:31:02;;;;;;;7.72;3.78;;;;;;;;;;5085976;28;20052;-84
2022/07/22 07:33:28;;;;;;;4.93;3.55;;;;;;;;;;5077836;28;20130;-82
2022/07/22 07:35:54;;;;;;;8.93;4.13;;;;;;;;;;5057396;28;20078;-81
2022/07/22 07:38:22;;;;;;;4.47;3.38;;;;;;;;;;5083859;28;20028;-81
2022/07/22 07:40:47;;;;;;;5.65;3.35;;;;;;;;;;5079782;28;20031;-84
2022/07/22 07:43:13;;;;;;;6.13;3.17;;;;;;;;;;5086973;28;20028;-82
2022/07/22 07:45:38;;;;;;;6.32;3.47;;;;;;;;;;5086650;28;20527;-83
2022/07/22 07:48:04;;;;;;;10.13;3.38;;;;;;;;;;5078530;28;20112;-82
2022/07/22 07:50:30;;;;;;;4.82;3.40;;;;;;;;;;5086146;28;20371;-80
2022/07/22 07:52:56;;;;;;;6.00;3.42;;;;;;;;;;5083184;28;20035;-82
2022/07/22 07:55:23;;;;;;;7.78;4.05;;;;;;;;;;5076923;28;20031;-80
2022/07/22 07:57:49;;;;;;;9.35;3.70;;;;;;;;;;5078793;28;20383;-82
2022/07/22 08:00:17;;;;;;;7.43;4.28;;;;;;;;;;5078290;28;20052;-81
2022/07/22 08:02:42;;;;;;;7.32;3.28;;;;;;;;;;5083915;28;20024;-79
2022/07/22 08:05:09;;;;;;;7.25;3.60;;;;;;;;;;5084496;28;21420;-80
2022/07/22 08:07:35;;;;;;;6.93;3.35;;;;;;;;;;5080003;28;20028;-82
2022/07/22 08:10:01;;;;;;;4.38;2.83;;;;;;;;;;5085434;28;20095;-82
2022/07/22 08:12:26;;;;;;;5.80;2.92;;;;;;;;;;5080047;28;20055;-83
2022/07/22 08:14:52;;;;;;;8.85;3.47;;;;;;;;;;5079980;28;20531;-80
2022/07/22 08:17:17;;;;;;;6.47;3.08;;;;;;;;;;5062518;28;20028;-81
2022/07/22 08:19:43;;;;;;;3.38;2.70;;;;;;;;;;5084986;28;20040;-81
2022/07/22 08:22:08;;;;;;;8.68;3.25;;;;;;;;;;5085905;28;20024;-80
2022/07/22 08:24:34;;;;;;;4.90;3.28;;;;;;;;;;5057145;28;20036;-81
2022/07/22 08:26:59;;;;;;;7.22;3.30;;;;;;;;;;5090720;28;20070;-81
2022/07/22 08:29:25;;;;;;;5.68;3.50;;;;;;;;;;5077692;28;20139;-81
2022/07/22 08:31:51;;;;;;;5.72;3.28;;;;;;;;;;5087694;28;20076;-84
2022/07/22 08:34:16;;;;;;;6.80;3.03;;;;;;;;;;5079392;28;20025;-82
2022/07/22 08:36:42;;;;;;;8.90;2.85;;;;;;;;;;5085303;28;20371;-86
2022/07/22 08:39:07;;;;;;;5.45;3.35;;;;;;;;;;5082513;28;20024;-88
2022/07/22 08:41:35;;;;;;;5.28;3.40;;;;;;;;;;5078015;28;20016;-85
2022/07/22 08:44:05;;;;;;;9.20;3.83;;;;;;;;;;5087261;28;20019;-85
2022/07/22 08:46:31;;;;;;;6.22;3.55;;;;;;;;;;5086359;28;20024;-83
2022/07/22 08:48:56;;;;;;;6.03;3.70;;;;;;;;;;5076010;28;20091;-85
2022/07/22 08:51:22;;;;;;;4.03;3.30;;;;;;;;;;5083995;28;20366;-84
2022/07/22 08:53:47;;;;;;;11.32;3.70;;;;;;;;;;5063705;28;20344;-84
2022/07/22 08:56:13;;;;;;;5.57;2.90;;;;;;;;;;5079635;28;20446;-85
2022/07/22 08:58:40;;;;;;;6.07;2.85;;;;;;;;;;5078153;28;20035;-85
2022/07/22 09:01:08;;;;;;;5.05;2.95;;;;;;;;;;5080577;28;20431;-86
2022/07/22 09:03:33;;;;;;;5.57;3.35;;;;;;;;;;5083795;28;20388;-86
2022/07/22 09:05:59;;;;;;;5.43;3.20;;;;;;;;;;5085176;28;20086;-85
2022/07/22 09:08:24;;;;;;;7.63;3.35;;;;;;;;;;5082834;28;20128;-87
2022/07/22 09:10:50;;;;;;;4.70;3.10;;;;;;;;;;5084984;28;20023;-85
2022/07/22 09:13:16;;;;;;;4.53;2.90;;;;;;;;;;5085849;28;20060;-84
2022/07/22 09:15:51;;;;;;;4.07;3.20;;;;;;;;;;5074285;28;20039;-86
2022/07/22 09:18:16;;;;;;;5.30;2.92;;;;;;;;;;5066169;28;20032;-88
2022/07/22 09:20:44;;;;;;;5.65;3.72;;;;;;;;;;5074814;28;20041;-84
2022/07/22 09:23:17;;;;;;;4.88;3.03;;;;;;;;;;5079930;28;20506;-84
2022/07/22 09:25:43;;;;;;;6.70;3.00;;;;;;;;;;5072948;28;20083;-83
2022/07/22 09:28:10;;;;;;;5.05;2.92;;;;;;;;;;5054725;28;20036;-86
2022/07/22 09:30:42;;;;;;;7.05;3.92;;;;;;;;;;5078765;28;21126;-85
2022/07/22 09:33:09;;;;;;;3.97;3.00;;;;;;;;;;5077144;28;20033;-86
2022/07/22 09:35:34;;;;;;;7.53;3.55;;;;;;;;;;5077377;28;20038;-82
2022/07/22 09:38:05;;;;;;;4.30;3.30;;;;;;;;;;5072765;28;20025;-83
2022/07/22 09:40:36;;;;;;;5.32;3.28;;;;;;;;;;5075884;28;20039;-83
2022/07/22 09:43:05;;;;;;;5.05;3.10;;;;;;;;;;5080615;28;20372;-81
2022/07/22 09:45:31;;;;;;;4.35;3.22;;;;;;;;;;5062811;28;20042;-82
2022/07/22 09:47:59;;;;;;;5.07;2.90;;;;;;;;;;5064619;28;20039;-84
2022/07/22 09:50:25;;;;;;;5.57;3.42;;;;;;;;;;5074609;28;20112;-84
2022/07/22 09:52:53;;;;;;;5.07;3.20;;;;;;;;;;5081111;28;20024;-85
2022/07/22 09:55:20;;;;;;;6.05;3.00;;;;;;;;;;5075601;28;20027;-86
2022/07/22 09:57:46;;;;;;;4.60;3.08;;;;;;;;;;5059878;28;20032;-85
2022/07/22 10:00:14;;;;;;;5.50;3.45;;;;;;;;;;5073930;28;20431;-86
2022/07/22 10:02:46;;;;;;;5.03;3.38;;;;;;;;;;5066564;28;20101;-86
2022/07/22 10:05:14;;;;;;;11.63;3.70;;;;;;;;;;5063474;28;20399;-89
2022/07/22 10:07:43;;;;;;;5.35;3.47;;;;;;;;;;5078177;28;20112;-85
2022/07/22 10:10:09;;;;;;;;;;;;;;;;;;5077794;28;20489;-87
2022/07/22 10:12:36;;;;;;;3.92;3.33;;;;;;;;;;5079421;28;19923;-88
2022/07/22 10:15:03;;;;;;;4.93;3.30;;;;;;;;;;5075414;28;20064;-85
2022/07/22 10:17:29;;;;;;;5.95;3.63;;;;;;;;;;5075969;28;20024;-87
2022/07/22 10:19:56;;;;;;;5.32;3.40;;;;;;;;;;5058940;28;20045;-86
2022/07/22 10:22:43;;;;;;;4.75;3.40;;;;;;;;;;5054584;28;20131;-84
2022/07/22 10:25:10;;;;;;;4.15;3.10;;;;;;;;;;5062448;28;20488;-87
2022/07/22 10:27:50;;;;;;;7.25;3.60;;;;;;;;;;5073611;28;20490;-87
2022/07/22 10:30:25;;;;;;;4.25;3.22;;;;;;;;;;5063822;28;20025;-90
2022/07/22 10:33:11;;;;;;;6.13;3.20;;;;;;;;;;5078253;28;20032;-91
2022/07/22 10:35:59;;;;;;;4.25;3.17;;;;;;;;;;5092022;28;20419;-91
2022/07/22 10:38:26;;;;;;;5.75;3.65;;;;;;;;;;5052339;28;20024;-89
2022/07/22 10:41:03;;;;;;;4.43;3.17;;;;;;;;;;5090900;28;20048;-90
2022/07/22 10:43:47;;;;;;;5.07;3.50;;;;;;;;;;5075349;28;20043;-85
2022/07/22 10:46:13;;;;;;;3.55;2.88;;;;;;;;;;5055920;28;20119;-84
2022/07/22 10:48:39;;;;;;;5.25;3.20;;;;;;;;;;5073836;28;20179;-86
2022/07/22 10:51:19;;;;;;;5.30;3.25;;;;;;;;;;5069538;28;20032;-85
2022/07/22 10:53:57;;;;;;;5.03;3.50;;;;;;;;;;5073748;28;20029;-85
2022/07/22 10:56:35;;;;;;;5.30;3.42;;;;;;;;;;5075087;28;20028;-82
2022/07/22 10:59:14;;;;;;;5.20;3.17;;;;;;;;;;5075602;28;20032;-85
2022/07/22 11:01:47;;;;;;;;;;;;;;;;;;5050076;28;20420;-82
2022/07/22 11:04:22;;;;;;;7.50;2.80;;;;;;;;;;5058971;28;19912;-83
2022/07/22 11:06:50;;;;;;;6.82;3.50;;;;;;;;;;5074759;28;20056;-82
2022/07/22 11:09:18;;;;;;;4.32;3.47;;;;;;;;;;5074016;28;20021;-82
2022/07/22 11:11:45;;;;;;;4.80;3.20;;;;;;;;;;5064228;28;20036;-82
2022/07/22 11:14:13;;;;;;;6.25;3.55;;;;;;;;;;5064532;28;20021;-86
2022/07/22 11:16:39;;;;;;;4.30;3.40;;;;;;;;;;5065688;28;20036;-84
2022/07/22 11:19:04;;;;;;;4.32;3.40;;;;;;;;;;5068564;28;20497;-82
2022/07/22 11:21:32;;;;;;;4.97;3.53;;;;;;;;;;5067873;28;20051;-83
2022/07/22 11:24:01;;;;;;;6.05;3.03;;;;;;;;;;5072566;28;20029;-84
2022/07/22 11:26:42;;;;;;;6.15;3.50;;;;;;;;;;5074538;28;20372;-83
2022/07/22 11:29:09;;;;;;;3.60;3.08;;;;;;;;;;5072542;28;20025;-84
2022/07/22 11:31:37;;;;;;;6.78;3.30;;;;;;;;;;5055811;28;20028;-82
2022/07/22 11:34:11;;;;;;;4.82;3.10;;;;;;;;;;5071890;28;20020;-86
2022/07/22 11:36:40;;;;;;;5.38;3.35;;;;;;;;;;5086865;28;20098;-84
2022/07/22 11:39:07;;;;;;;6.28;3.63;;;;;;;;;;5071386;28;20400;-85
2022/07/22 11:41:33;;;;;;;5.95;3.20;;;;;;;;;;5068964;28;20404;-85
2022/07/22 11:43:59;;;;;;;6.85;3.47;;;;;;;;;;5056569;28;20035;-85
2022/07/22 11:46:25;;;;;;;4.70;3.10;;;;;;;;;;5061466;28;20040;-86
2022/07/22 11:48:52;;;;;;;4.50;3.10;;;;;;;;;;5073573;28;20020;-85
2022/07/22 11:51:28;;;;;;;5.35;3.42;;;;;;;;;;5060058;28;20039;-85
2022/07/22 11:53:53;;;;;;;6.13;3.50;;;;;;;;;;5077241;28;20024;-85
2022/07/22 11:56:19;;;;;;;5.88;3.40;;;;;;;;;;5075496;28;20120;-86
2022/07/22 11:58:47;;;;;;;4.63;3.45;;;;;;;;;;5068126;28;20486;-84
2022/07/22 12:01:15;;;;;;;3.88;3.00;;;;;;;;;;5074109;28;20380;-82
2022/07/22 12:03:45;;;;;;;4.50;3.33;;;;;;;;;;5083229;28;20028;-84
2022/07/22 12:06:12;;;;;;;4.70;3.50;;;;;;;;;;5078650;28;20426;-86
2022/07/22 12:08:47;;;;;;;4.65;3.60;;;;;;;;;;5081292;28;20032;-88
2022/07/22 12:11:15;;;;;;;6.15;3.30;;;;;;;;;;5060175;28;20542;-85
2022/07/22 12:13:43;;;;;;;7.70;3.92;;;;;;;;;;5081915;28;20055;-88
2022/07/22 12:16:27;;;;;;;8.95;3.58;;;;;;;;;;5077303;28;20021;-85
2022/07/22 12:18:54;;;;;;;6.97;3.47;;;;;;;;;;5058768;28;20077;-84
2022/07/22 12:21:21;;;;;;;8.27;3.75;;;;;;;;;;5079816;28;20093;-86
2022/07/22 12:23:55;;;;;;;6.05;3.75;;;;;;;;;;5086142;28;20459;-84
2022/07/22 12:26:56;;;;;;;9.52;4.25;;;;;;;;;;5074509;28;20035;-87
2022/07/22 12:29:24;;;;;;;4.00;3.47;;;;;;;;;;5076243;28;20115;-86
2022/07/22 12:31:58;;;;;;;5.07;3.13;;;;;;;;;;5081449;28;20024;-84
2022/07/22 12:34:39;;;;;;;10.43;3.40;;;;;;;;;;5077168;28;20020;-88
2022/07/22 12:37:14;;;;;;;7.53;3.25;;;;;;;;;;5075106;28;20025;-88
2022/07/22 12:39:52;;;;;;;4.53;2.97;;;;;;;;;;5080051;28;20115;-85
2022/07/22 12:42:18;;;;;;;7.80;3.97;;;;;;;;;;5076978;28;20491;-86
2022/07/22 12:44:52;;;;;;;5.78;3.80;;;;;;;;;;5080680;28;20029;-87
2022/07/22 12:47:17;;;;;;;6.10;3.53;;;;;;;;;;5073471;28;20039;-84
2022/07/22 12:49:43;;;;;;;6.22;3.38;;;;;;;;;;5083636;28;20024;-85
2022/07/22 12:52:13;;;;;;;4.22;3.70;;;;;;;;;;5074789;28;20066;-87
2022/07/22 12:54:40;;;;;;;5.18;3.33;;;;;;;;;;5084916;28;20107;-84
2022/07/22 12:57:07;;;;;;;5.00;3.08;;;;;;;;;;5074755;28;20433;-86
2022/07/22 12:59:33;;;;;;;6.70;3.35;;;;;;;;;;5080615;28;20479;-86
2022/07/22 13:01:59;;;;;;;6.40;3.40;;;;;;;;;;5083293;28;20028;-86
2022/07/22 13:04:24;;;;;;;5.03;3.22;;;;;;;;;;5076111;28;20064;-87
2022/07/22 13:06:50;;;;;;;4.43;3.38;;;;;;;;;;5083896;28;20027;-86
2022/07/22 13:09:16;;;;;;;6.93;3.17;;;;;;;;;;5073571;28;20035;-85
2022/07/22 13:11:44;;;;;;;4.75;2.67;;;;;;;;;;5073401;28;20495;-86
2022/07/22 13:14:13;;;;;;;4.40;3.00;;;;;;;;;;5081484;28;20032;-84
2022/07/22 13:16:39;;;;;;;6.72;3.40;;;;;;;;;;5086069;28;20036;-87
2022/07/22 13:19:05;;;;;;;5.53;2.78;;;;;;;;;;5093582;28;20055;-88
2022/07/22 13:21:30;;;;;;;4.97;2.72;;;;;;;;;;5084556;28;20047;-86
2022/07/22 13:23:56;;;;;;;4.80;2.83;;;;;;;;;;5084701;28;20039;-85
2022/07/22 13:26:21;;;;;;;5.43;3.03;;;;;;;;;;5087007;28;20497;-86
2022/07/22 13:28:47;;;;;;;7.57;3.05;;;;;;;;;;5082022;28;20475;-85
2022/07/22 13:31:13;;;;;;;3.97;2.88;;;;;;;;;;5081756;28;20027;-85
2022/07/22 13:33:38;;;;;;;3.72;2.95;;;;;;;;;;5082727;28;20464;-84
2022/07/22 13:36:04;;;;;;;5.57;2.90;;;;;;;;;;5086641;28;20036;-83
2022/07/22 13:38:30;;;;;;;4.22;2.30;;;;;;;;;;5070466;28;20103;-84
2022/07/22 13:40:56;;;;;;;4.53;2.83;;;;;;;;;;5091683;28;20052;-86
2022/07/22 13:43:24;;;;;;;6.82;3.30;;;;;;;;;;5071689;28;20071;-85
2022/07/22 13:45:50;;;;;;;5.83;2.63;;;;;;;;;;5081144;28;20032;-86
2022/07/22 13:48:20;;;;;;;4.63;2.70;;;;;;;;;;5092643;28;20279;-82
2022/07/22 13:50:46;;;;;;;6.43;2.50;;;;;;;;;;5064264;28;20461;-84
2022/07/22 13:53:11;;;;;;;3.92;2.55;;;;;;;;;;5066117;28;20024;-84
2022/07/22 13:55:41;;;;;;;3.75;2.90;;;;;;;;;;5076784;28;20035;-83
2022/07/22 13:58:07;;;;;;;3.97;2.50;;;;;;;;;;5086570;28;20032;-83
2022/07/22 14:00:33;;;;;;;4.80;2.40;;;;;;;;;;5077180;28;20147;-84
2022/07/22 14:02:59;;;;;;;4.15;2.60;;;;;;;;;;5073514;28;20172;-83
2022/07/22 14:05:25;;;;;;;5.40;3.08;;;;;;;;;;5076071;28;20048;-85
2022/07/22 14:07:51;;;;;;;8.40;3.45;;;;;;;;;;5079576;28;20029;-87
2022/07/22 14:10:16;;;;;;;7.82;3.28;;;;;;;;;;5075426;28;20028;-85
2022/07/22 14:12:41;;;;;;;8.85;2.85;;;;;;;;;;5080594;28;20108;-88
2022/07/22 14:15:08;;;;;;;6.43;3.10;;;;;;;;;;5086887;28;20052;-86
2022/07/22 14:17:34;;;;;;;5.00;2.60;;;;;;;;;;5077058;28;20464;-86
2022/07/22 14:19:59;;;;;;;4.60;2.65;;;;;;;;;;5088981;28;20105;-83
2022/07/22 14:22:25;;;;;;;3.92;2.70;;;;;;;;;;5088037;28;20028;-85
2022/07/22 14:24:51;;;;;;;4.50;2.50;;;;;;;;;;5080255;28;20021;-84
2022/07/22 14:27:16;;;;;;;5.78;3.03;;;;;;;;;;5080180;28;20117;-85
2022/07/22 14:29:42;;;;;;;3.80;2.40;;;;;;;;;;5078905;28;20031;-86
2022/07/22 14:32:08;;;;;;;4.00;2.53;;;;;;;;;;5069110;28;20034;-85
2022/07/22 14:34:33;;;;;;;5.60;2.90;;;;;;;;;;5086028;28;20047;-85
2022/07/22 14:36:58;;;;;;;6.68;3.17;;;;;;;;;;5080329;28;20108;-87
2022/07/22 14:39:24;;;;;;;5.30;2.92;;;;;;;;;;5070650;28;20085;-85
2022/07/22 14:41:49;;;;;;;6.85;2.40;;;;;;;;;;5080892;28;20036;-85